createdAt,value
2019-04-29T00:00:46.096Z,96813.88
2019-04-29T00:03:14.796Z,96810.45
2019-04-29T00:05:43.881Z,96818.22
2019-04-29T00:08:12.567Z,96815.92
2019-04-29T00:10:41.376Z,96818.16
2019-04-29T00:13:10.087Z,96827.23
2019-04-29T00:15:43.317Z,96825.36
2019-04-29T00:18:16.368Z,96819.45
2019-04-29T00:20:46.667Z,96817.84
2019-04-29T00:23:15.358Z,96823.37
2019-04-29T00:25:44.249Z,96816.13
2019-04-29T00:28:13.462Z,96812.52
2019-04-29T00:30:43.076Z,96813.14
2019-04-29T00:33:11.742Z,96811.32
2019-04-29T00:35:40.442Z,96808.49
2019-04-29T00:38:10.738Z,96810.39
2019-04-29T00:40:43.891Z,96803.69
2019-04-29T00:43:30.498Z,96803.86
2019-04-29T00:45:59.278Z,96794.50
2019-04-29T00:48:27.930Z,96790.00
2019-04-29T00:50:56.575Z,96792.72
2019-04-29T00:53:25.323Z,96795.27
2019-04-29T00:55:53.982Z,96802.95
2019-04-29T00:58:22.635Z,96803.16
2019-04-29T01:00:51.522Z,96801.95
2019-04-29T01:03:20.164Z,96805.58
2019-04-29T01:05:53.855Z,96802.42
2019-04-29T01:08:22.643Z,96795.55
2019-04-29T01:10:51.356Z,96793.40
2019-04-29T01:13:20.082Z,96803.36
2019-04-29T01:15:49.129Z,96807.08
2019-04-29T01:18:17.779Z,96811.21
2019-04-29T01:20:46.441Z,96812.34
2019-04-29T01:23:15.128Z,96804.11
2019-04-29T01:25:45.701Z,96805.09
2019-04-29T01:28:18.769Z,96804.29
2019-04-29T01:31:03.910Z,96805.24
2019-04-29T01:33:32.603Z,96804.99
2019-04-29T01:36:17.898Z,96801.13
2019-04-29T01:38:48.808Z,96799.56
2019-04-29T01:41:19.486Z,96804.84
2019-04-29T01:44:02.065Z,96801.08
2019-04-29T01:46:31.029Z,96801.18
2019-04-29T01:48:59.682Z,96795.23
2019-04-29T01:51:28.460Z,96792.36
2019-04-29T01:53:57.083Z,96792.31
2019-04-29T01:56:25.724Z,96789.08
2019-04-29T01:58:54.466Z,96786.11
2019-04-29T02:01:23.220Z,96783.80
2019-04-29T02:03:51.854Z,96783.53
2019-04-29T02:06:20.557Z,96786.83
2019-04-29T02:08:50.483Z,96782.39
2019-04-29T02:11:19.150Z,96787.09
2019-04-29T02:13:47.831Z,96788.18
2019-04-29T02:16:16.753Z,96780.30
2019-04-29T02:18:45.444Z,96785.25
2019-04-29T02:21:14.074Z,96776.68
2019-04-29T02:23:44.354Z,96773.15
2019-04-29T02:26:13.060Z,96770.97
2019-04-29T02:28:41.699Z,96771.64
2019-04-29T02:31:29.416Z,96773.92
2019-04-29T02:33:58.151Z,96772.95
2019-04-29T02:36:29.955Z,96773.33
2019-04-29T02:39:17.026Z,96772.41
2019-04-29T02:42:05.411Z,96764.95
2019-04-29T02:44:34.205Z,96765.07
2019-04-29T02:47:02.887Z,96761.06
2019-04-29T02:49:31.618Z,96766.92
2019-04-29T02:52:00.316Z,96760.80
2019-04-29T02:54:30.163Z,96770.17
2019-04-29T02:57:06.408Z,96777.88
2019-04-29T02:59:45.883Z,96781.05
2019-04-29T03:02:22.118Z,96767.88
2019-04-29T03:04:52.519Z,96771.53
2019-04-29T03:07:22.122Z,96784.97
2019-04-29T03:09:50.895Z,96783.13
2019-04-29T03:12:19.560Z,96786.12
2019-04-29T03:14:48.462Z,96789.58
2019-04-29T03:17:18.962Z,96793.92
2019-04-29T03:20:05.953Z,96796.97
2019-04-29T03:22:35.061Z,96796.79
2019-04-29T03:25:03.670Z,96797.95
2019-04-29T03:27:32.418Z,96800.99
2019-04-29T03:30:01.096Z,96796.84
2019-04-29T03:32:29.762Z,96799.59
2019-04-29T03:34:58.608Z,96799.53
2019-04-29T03:37:27.315Z,96805.88
2019-04-29T03:39:56.003Z,96805.42
2019-04-29T03:42:24.714Z,96804.11
2019-04-29T03:44:53.363Z,96804.53
2019-04-29T03:47:22.107Z,96803.34
2019-04-29T03:49:50.808Z,96811.24
2019-04-29T03:52:19.450Z,96812.92
2019-04-29T03:54:48.098Z,96808.66
2019-04-29T03:57:17.982Z,96807.36
2019-04-29T03:59:46.657Z,96811.11
2019-04-29T04:02:33.441Z,96812.60
2019-04-29T04:05:03.685Z,96815.58
2019-04-29T04:07:49.122Z,96814.00
2019-04-29T04:10:17.829Z,96818.66
2019-04-29T04:12:46.515Z,96828.00
2019-04-29T04:15:15.362Z,96820.52
2019-04-29T04:17:51.258Z,96811.21
2019-04-29T04:20:19.981Z,96813.45
2019-04-29T04:22:49.143Z,96808.08
2019-04-29T04:25:21.117Z,96814.00
2019-04-29T04:27:49.757Z,96821.22
2019-04-29T04:30:20.031Z,96819.28
2019-04-29T04:32:48.694Z,96819.27
2019-04-29T04:35:17.374Z,96814.78
2019-04-29T04:37:46.041Z,96810.84
2019-04-29T04:40:19.623Z,96809.38
2019-04-29T04:42:48.243Z,96806.55
2019-04-29T04:45:17.096Z,96803.44
2019-04-29T04:47:45.658Z,96804.48
2019-04-29T04:50:14.809Z,96810.11
2019-04-29T04:52:43.512Z,96809.49
2019-04-29T04:55:12.797Z,96802.07
2019-04-29T04:57:42.033Z,96808.70
2019-04-29T05:00:12.883Z,96811.67
2019-04-29T05:02:41.542Z,96818.96
2019-04-29T05:05:10.192Z,96816.93
2019-04-29T05:07:38.879Z,96823.59
2019-04-29T05:10:08.338Z,96817.00
2019-04-29T05:12:36.919Z,96820.36
2019-04-29T05:15:06.148Z,96820.16
2019-04-29T05:17:34.825Z,96813.59
2019-04-29T05:20:04.330Z,96812.33
2019-04-29T05:22:32.953Z,96812.16
2019-04-29T05:25:01.652Z,96805.78
2019-04-29T05:27:30.300Z,96802.81
2019-04-29T05:29:59.004Z,96800.89
2019-04-29T05:32:27.667Z,96803.45
2019-04-29T05:34:57.876Z,96806.13
2019-04-29T05:37:36.795Z,96803.14
2019-04-29T05:40:07.336Z,96806.63
2019-04-29T05:42:35.971Z,96809.98
2019-04-29T05:45:15.384Z,96808.23
2019-04-29T05:47:45.616Z,96806.94
2019-04-29T05:50:23.096Z,96805.56
2019-04-29T05:52:59.730Z,96804.53
2019-04-29T05:55:28.694Z,96795.90
2019-04-29T05:58:03.049Z,96801.44
2019-04-29T06:00:29.458Z,96791.18
2019-04-29T06:02:58.109Z,96791.38
2019-04-29T06:05:26.898Z,96782.72
2019-04-29T06:07:56.260Z,96784.41
2019-04-29T06:10:25.907Z,96779.72
2019-04-29T06:12:54.542Z,96781.47
2019-04-29T06:15:23.179Z,96783.28
2019-04-29T06:17:52.511Z,96782.42
2019-04-29T06:20:22.912Z,96784.63
2019-04-29T06:22:51.809Z,96784.77
2019-04-29T06:25:20.702Z,96785.78
2019-04-29T06:27:49.308Z,96788.66
2019-04-29T06:30:18.045Z,96782.16
2019-04-29T06:32:46.798Z,96785.16
2019-04-29T06:35:15.491Z,96773.91
2019-04-29T06:37:44.138Z,96780.00
2019-04-29T06:40:12.902Z,96773.64
2019-04-29T06:42:41.588Z,96771.78
2019-04-29T06:45:10.330Z,96768.09
2019-04-29T06:47:38.944Z,96766.54
2019-04-29T06:50:09.603Z,96761.44
2019-04-29T06:52:38.240Z,96752.81
2019-04-29T06:55:12.083Z,96751.40
2019-04-29T06:57:40.714Z,96750.62
2019-04-29T07:00:09.605Z,96755.69
2019-04-29T07:02:38.242Z,96737.78
2019-04-29T07:05:08.258Z,96737.78
2019-04-29T07:07:36.923Z,96727.92
2019-04-29T07:10:06.773Z,96727.92
2019-04-29T07:12:35.911Z,96741.08
2019-04-29T07:15:12.195Z,96723.73
2019-04-29T07:17:41.334Z,96731.19
2019-04-29T07:20:09.791Z,96736.16
2019-04-29T07:22:38.602Z,96727.88
2019-04-29T07:25:07.384Z,96732.97
2019-04-29T07:27:42.919Z,96728.98
2019-04-29T07:30:10.777Z,96723.80
2019-04-29T07:32:42.093Z,96727.60
2019-04-29T07:35:11.515Z,96731.30
2019-04-29T07:37:40.439Z,96730.73
2019-04-29T07:40:09.586Z,96721.52
2019-04-29T07:42:38.271Z,96716.58
2019-04-29T07:45:23.749Z,96713.10
2019-04-29T07:47:56.697Z,96707.33
2019-04-29T07:50:26.818Z,96705.41
2019-04-29T07:52:55.211Z,96705.76
2019-04-29T07:55:26.111Z,96709.48
2019-04-29T07:57:54.234Z,96696.25
2019-04-29T08:00:32.056Z,96695.77
2019-04-29T08:03:01.133Z,96702.83
2019-04-29T08:05:30.698Z,96693.75
2019-04-29T08:08:01.411Z,96690.98
2019-04-29T08:10:30.164Z,96694.82
2019-04-29T08:12:59.770Z,96692.38
2019-04-29T08:15:31.741Z,96693.53
2019-04-29T08:18:06.353Z,96689.26
2019-04-29T08:20:29.433Z,96683.58
2019-04-29T08:22:58.381Z,96675.47
2019-04-29T08:25:30.277Z,96676.40
2019-04-29T08:27:58.936Z,96678.84
2019-04-29T08:30:27.616Z,96672.83
2019-04-29T08:32:56.284Z,96662.52
2019-04-29T08:35:24.859Z,96665.19
2019-04-29T08:37:53.539Z,96663.12
2019-04-29T08:40:22.242Z,96659.51
2019-04-29T08:43:08.822Z,96659.56
2019-04-29T08:45:41.817Z,96651.48
2019-04-29T08:48:10.556Z,96641.23
2019-04-29T08:50:39.190Z,96646.89
2019-04-29T08:53:07.952Z,96645.11
2019-04-29T08:55:36.864Z,96637.27
2019-04-29T08:58:06.938Z,96633.92
2019-04-29T09:00:36.492Z,96630.22
2019-04-29T09:03:05.137Z,96627.27
2019-04-29T09:05:35.547Z,96623.99
2019-04-29T09:08:04.379Z,96616.67
2019-04-29T09:10:36.411Z,96610.84
2019-04-29T09:13:03.479Z,96610.19
2019-04-29T09:15:32.208Z,96607.83
2019-04-29T09:18:00.913Z,96596.20
2019-04-29T09:20:29.563Z,96584.16
2019-04-29T09:23:02.959Z,96587.84
2019-04-29T09:25:36.277Z,96583.67
2019-04-29T09:28:06.709Z,96584.73
2019-04-29T09:30:38.473Z,96580.53
2019-04-29T09:33:08.739Z,96580.70
2019-04-29T09:35:38.804Z,96573.30
2019-04-29T09:38:06.703Z,96575.21
2019-04-29T09:40:54.481Z,96577.83
2019-04-29T09:43:33.029Z,96568.58
2019-04-29T09:46:03.473Z,96569.61
2019-04-29T09:48:32.229Z,96558.81
2019-04-29T09:51:00.967Z,96551.70
2019-04-29T09:53:29.623Z,96553.92
2019-04-29T09:55:58.610Z,96550.15
2019-04-29T09:58:27.281Z,96544.48
2019-04-29T10:01:13.945Z,96540.77
2019-04-29T10:03:44.325Z,96528.95
2019-04-29T10:06:23.558Z,96532.66
2019-04-29T10:08:52.276Z,96532.84
2019-04-29T10:11:20.931Z,96525.19
2019-04-29T10:13:49.647Z,96526.74
2019-04-29T10:16:31.762Z,96526.70
2019-04-29T10:19:05.242Z,96525.13
2019-04-29T10:21:31.636Z,96516.13
2019-04-29T10:24:00.448Z,96520.30
2019-04-29T10:26:29.151Z,96516.78
2019-04-29T10:29:05.559Z,96507.55
2019-04-29T10:31:34.323Z,96502.20
2019-04-29T10:34:03.044Z,96496.34
2019-04-29T10:36:31.793Z,96502.73
2019-04-29T10:39:02.153Z,96494.52
2019-04-29T10:41:40.285Z,96499.00
2019-04-29T10:44:29.581Z,96488.73
2019-04-29T10:47:10.092Z,96491.37
2019-04-29T10:49:57.288Z,96488.73
2019-04-29T10:52:26.725Z,96479.07
2019-04-29T10:54:56.546Z,96468.02
2019-04-29T10:57:29.322Z,96468.00
2019-04-29T11:00:11.029Z,96464.94
2019-04-29T11:02:39.995Z,96465.53
2019-04-29T11:05:15.571Z,96456.41
2019-04-29T11:07:46.237Z,96451.67
2019-04-29T11:10:24.962Z,96455.69
2019-04-29T11:12:47.883Z,96454.97
2019-04-29T11:15:19.797Z,96443.95
2019-04-29T11:17:58.491Z,96441.05
2019-04-29T11:20:21.491Z,96440.73
2019-04-29T11:23:09.315Z,96446.20
2019-04-29T11:25:50.960Z,96437.12
2019-04-29T11:28:18.699Z,96435.13
2019-04-29T11:30:49.613Z,96421.34
2019-04-29T11:33:28.533Z,96425.48
2019-04-29T11:36:03.847Z,96432.54
2019-04-29T11:38:33.326Z,96428.83
2019-04-29T11:41:02.341Z,96427.80
2019-04-29T11:43:31.655Z,96430.94
2019-04-29T11:46:00.381Z,96420.81
2019-04-29T11:48:29.102Z,96424.29
2019-04-29T11:50:59.399Z,96428.17
2019-04-29T11:53:28.852Z,96429.70
2019-04-29T11:55:58.766Z,96420.13
2019-04-29T11:58:31.940Z,96424.27
2019-04-29T12:01:10.215Z,96417.03
2019-04-29T12:03:56.531Z,96421.95
2019-04-29T12:06:23.998Z,96414.71
2019-04-29T12:08:54.818Z,96408.94
2019-04-29T12:11:23.814Z,96406.16
2019-04-29T12:14:05.927Z,96406.92
2019-04-29T12:16:36.264Z,96411.36
2019-04-29T12:19:20.899Z,96397.05
2019-04-29T12:21:47.180Z,96406.07
2019-04-29T12:24:16.243Z,96397.61
2019-04-29T12:26:44.989Z,96396.68
2019-04-29T12:29:18.037Z,96397.20
2019-04-29T12:31:51.931Z,96395.57
2019-04-29T12:34:26.819Z,96395.34
2019-04-29T12:36:56.778Z,96390.67
2019-04-29T12:39:42.791Z,96385.72
2019-04-29T12:42:17.932Z,96387.14
2019-04-29T12:44:54.366Z,96383.80
2019-04-29T12:47:28.024Z,96382.88
2019-04-29T12:49:56.669Z,96368.45
2019-04-29T12:52:25.595Z,96374.91
2019-04-29T12:54:54.343Z,96378.89
2019-04-29T12:57:23.583Z,96367.56
2019-04-29T12:59:54.715Z,96364.55
2019-04-29T13:02:28.415Z,96362.89
2019-04-29T13:05:01.705Z,96361.95
2019-04-29T13:07:39.351Z,96365.69
2019-04-29T13:10:18.949Z,96347.22
2019-04-29T13:12:47.687Z,96344.34
2019-04-29T13:15:24.270Z,96352.72
2019-04-29T13:18:03.639Z,96354.12
2019-04-29T13:20:28.201Z,96358.60
2019-04-29T13:23:01.157Z,96359.89
2019-04-29T13:25:27.542Z,96350.66
2019-04-29T13:28:03.754Z,96355.20
2019-04-29T13:30:26.710Z,96358.66
2019-04-29T13:32:55.480Z,96363.45
2019-04-29T13:35:24.395Z,96363.13
2019-04-29T13:37:53.104Z,96362.59
2019-04-29T13:40:24.427Z,96357.77
2019-04-29T13:42:53.189Z,96361.12
2019-04-29T13:45:25.234Z,96359.45
2019-04-29T13:47:55.625Z,96364.31
2019-04-29T13:50:38.989Z,96354.45
2019-04-29T13:52:56.343Z,96357.91
2019-04-29T13:55:47.041Z,96355.69
2019-04-29T13:57:57.380Z,96350.03
2019-04-29T14:00:27.742Z,96348.74
2019-04-29T14:03:00.893Z,96349.08
2019-04-29T14:05:32.510Z,96341.36
2019-04-29T14:08:01.034Z,96337.47
2019-04-29T14:10:29.722Z,96346.48
2019-04-29T14:13:09.814Z,96342.94
2019-04-29T14:15:29.634Z,96346.13
2019-04-29T14:17:59.302Z,96347.46
2019-04-29T14:20:27.952Z,96347.42
2019-04-29T14:22:56.648Z,96349.42
2019-04-29T14:25:25.363Z,96349.23
2019-04-29T14:27:54.009Z,96343.20
2019-04-29T14:30:37.532Z,96345.62
2019-04-29T14:32:54.930Z,96336.61
2019-04-29T14:35:28.219Z,96344.94
2019-04-29T14:38:04.585Z,96343.52
2019-04-29T14:40:27.376Z,96339.13
2019-04-29T14:43:26.855Z,96338.38
2019-04-29T14:45:55.375Z,96334.78
2019-04-29T14:48:25.866Z,96339.27
2019-04-29T14:50:56.129Z,96331.00
2019-04-29T14:53:26.246Z,96339.89
2019-04-29T14:55:55.162Z,96336.06
2019-04-29T14:58:23.880Z,96336.08
2019-04-29T15:00:54.176Z,96347.91
2019-04-29T15:03:24.479Z,96347.10
2019-04-29T15:05:53.238Z,96343.58
2019-04-29T15:08:22.190Z,96340.34
2019-04-29T15:10:52.545Z,96340.13
2019-04-29T15:13:22.196Z,96345.02
2019-04-29T15:16:04.625Z,96341.56
2019-04-29T15:18:49.566Z,96341.79
2019-04-29T15:21:33.084Z,96341.61
2019-04-29T15:23:53.995Z,96338.95
2019-04-29T15:26:22.661Z,96336.72
2019-04-29T15:28:51.453Z,96343.55
2019-04-29T15:31:22.277Z,96336.70
2019-04-29T15:33:51.140Z,96339.64
2019-04-29T15:36:19.776Z,96343.61
2019-04-29T15:39:08.288Z,96336.30
2019-04-29T15:41:20.565Z,96334.04
2019-04-29T15:43:49.623Z,96334.80
2019-04-29T15:46:18.282Z,96332.47
2019-04-29T15:48:46.968Z,96333.45
2019-04-29T15:51:15.665Z,96322.87
2019-04-29T15:53:44.341Z,96332.11
2019-04-29T15:56:28.420Z,96330.88
2019-04-29T15:58:43.706Z,96327.91
2019-04-29T16:03:43.150Z,96332.11
2019-04-29T16:06:22.287Z,96335.37
2019-04-29T16:08:52.632Z,96329.03
2019-04-29T16:11:38.928Z,96335.57
2019-04-29T16:14:17.930Z,96332.19
2019-04-29T16:16:46.591Z,96337.80
2019-04-29T16:19:15.297Z,96334.81
2019-04-29T16:21:44.147Z,96336.41
2019-04-29T16:24:25.796Z,96336.99
2019-04-29T16:26:43.282Z,96339.69
2019-04-29T16:29:15.154Z,96346.97
2019-04-29T16:31:42.663Z,96344.78
2019-04-29T16:34:11.369Z,96342.86
2019-04-29T16:36:43.756Z,96345.85
2019-04-29T16:39:10.491Z,96344.05
2019-04-29T16:41:50.975Z,96349.09
2019-04-29T16:44:34.596Z,96346.64
2019-04-29T16:46:49.293Z,96343.22
2019-04-29T16:49:18.256Z,96343.55
2019-04-29T16:51:47.839Z,96346.48
2019-04-29T16:54:20.638Z,96347.69
2019-04-29T16:56:47.846Z,96352.33
2019-04-29T16:59:16.517Z,96351.09
2019-04-29T17:01:45.246Z,96355.97
2019-04-29T17:04:13.996Z,96361.25
2019-04-29T17:06:52.469Z,96361.05
2019-04-29T17:09:31.098Z,96362.62
2019-04-29T17:12:01.361Z,96363.16
2019-04-29T17:14:30.118Z,96357.23
2019-04-29T17:16:58.864Z,96366.55
2019-04-29T17:19:27.466Z,96357.47
2019-04-29T17:22:23.272Z,96363.97
2019-04-29T17:24:26.617Z,96369.73
2019-04-29T17:27:05.819Z,96370.56
2019-04-29T17:29:49.273Z,96370.05
2019-04-29T17:32:27.606Z,96383.45
2019-04-29T17:34:59.729Z,96379.13
2019-04-29T17:35:15.455Z,96325.14
2019-04-29T17:37:28.260Z,96387.21
2019-04-29T17:39:56.882Z,96386.50
2019-04-29T17:42:27.201Z,96389.33
2019-04-29T17:44:55.872Z,96388.78
2019-04-29T17:47:38.140Z,96394.25
2019-04-29T17:50:31.251Z,96392.49
2019-04-29T17:52:51.610Z,96405.11
2019-04-29T17:55:21.824Z,96410.95
2019-04-29T17:57:58.194Z,96412.91
2019-04-29T18:00:41.352Z,96416.14
2019-04-29T18:03:18.799Z,96420.59
2019-04-29T18:05:57.595Z,96421.27
2019-04-29T18:08:27.046Z,96427.92
2019-04-29T18:10:59.881Z,96430.97
2019-04-29T18:13:27.908Z,96430.00
2019-04-29T18:16:01.630Z,96435.42
2019-04-29T18:18:28.570Z,96445.09
2019-04-29T18:21:03.113Z,96437.80
2019-04-29T18:23:33.739Z,96454.31
2019-04-29T18:26:04.839Z,96454.31
2019-04-29T18:28:35.848Z,96453.51
2019-04-29T18:31:07.112Z,96450.73
2019-04-29T18:33:35.743Z,96459.59
2019-04-29T18:36:06.877Z,96461.14
2019-04-29T18:38:35.111Z,96462.30
2019-04-29T18:41:03.886Z,96466.11
2019-04-29T18:43:32.594Z,96466.95
2019-04-29T18:46:05.962Z,96463.55
2019-04-29T18:48:31.900Z,96466.76
2019-04-29T18:51:00.618Z,96462.05
2019-04-29T18:53:29.264Z,96462.05
2019-04-29T18:55:57.931Z,96464.02
2019-04-29T18:58:26.649Z,96462.59
2019-04-29T19:00:56.413Z,96459.52
2019-04-29T19:03:29.683Z,96468.20
2019-04-29T19:05:58.963Z,96464.87
2019-04-29T19:08:30.498Z,96473.45
2019-04-29T19:10:58.112Z,96465.53
2019-04-29T19:13:31.057Z,96467.44
2019-04-29T19:16:09.481Z,96468.65
2019-04-29T19:18:30.562Z,96475.96
2019-04-29T19:20:59.280Z,96469.58
2019-04-29T19:23:29.869Z,96476.73
2019-04-29T19:25:58.631Z,96478.62
2019-04-29T19:28:32.538Z,96473.10
2019-04-29T19:31:03.137Z,96482.20
2019-04-29T19:33:35.717Z,96483.40
2019-04-29T19:36:01.969Z,96474.31
2019-04-29T19:38:30.783Z,96471.93
2019-04-29T19:40:59.457Z,96475.28
2019-04-29T19:43:28.227Z,96479.25
2019-04-29T19:45:57.490Z,96474.31
2019-04-29T19:48:28.395Z,96473.83
2019-04-29T19:51:14.083Z,96474.19
2019-04-29T19:53:27.435Z,96476.56
2019-04-29T19:56:04.174Z,96467.14
2019-04-29T19:58:29.670Z,96470.95
2019-04-29T20:01:10.321Z,96471.14
2019-04-29T20:03:35.816Z,96470.47
2019-04-29T20:06:09.048Z,96475.56
2019-04-29T20:08:51.010Z,96473.26
2019-04-29T20:11:14.295Z,96474.95
2019-04-29T20:13:41.123Z,96476.56
2019-04-29T20:16:24.952Z,96473.97
2019-04-29T20:19:12.325Z,96478.30
2019-04-29T20:21:38.601Z,96472.11
2019-04-29T20:24:09.854Z,96467.74
2019-04-29T20:26:39.262Z,96475.27
2019-04-29T20:32:07.932Z,96470.20
2019-04-29T20:34:37.164Z,96473.07
2019-04-29T20:37:10.756Z,96475.58
2019-04-29T20:39:37.759Z,96473.59
2019-04-29T20:42:10.276Z,96473.48
2019-04-29T20:44:41.123Z,96483.10
2019-04-29T20:47:19.365Z,96477.89
2019-04-29T20:49:39.555Z,96471.85
2019-04-29T20:52:22.238Z,96466.24
2019-04-29T20:54:57.615Z,96458.45
2019-04-29T20:57:23.684Z,96463.61
2019-04-29T20:59:52.220Z,96460.03
2019-04-29T21:02:31.454Z,96466.11
2019-04-29T21:04:52.089Z,96472.63
2019-04-29T21:07:23.617Z,96474.42
2019-04-29T21:09:51.210Z,96471.80
2019-04-29T21:12:21.525Z,96478.94
2019-04-29T21:15:00.860Z,96477.62
2019-04-29T21:17:31.992Z,96478.37
2019-04-29T21:20:00.262Z,96479.57
2019-04-29T21:22:29.188Z,96478.80
2019-04-29T21:24:58.016Z,96485.21
2019-04-29T21:27:26.686Z,96481.34
2019-04-29T21:29:55.515Z,96486.87
2019-04-29T21:32:25.805Z,96485.56
2019-04-29T21:34:56.379Z,96486.30
2019-04-29T21:37:29.682Z,96481.13
2019-04-29T21:39:59.969Z,96481.28
2019-04-29T21:42:36.986Z,96488.83
2019-04-29T21:45:09.084Z,96480.20
2019-04-29T21:47:42.750Z,96484.17
2019-04-29T21:50:08.674Z,96480.98
2019-04-29T21:52:38.432Z,96475.95
2019-04-29T21:55:07.312Z,96472.41
2019-04-29T21:57:35.974Z,96473.42
2019-04-29T22:00:08.770Z,96473.59
2019-04-29T22:02:37.514Z,96472.80
2019-04-29T22:05:09.706Z,96475.61
2019-04-29T22:07:39.702Z,96475.86
2019-04-29T22:10:09.513Z,96485.36
2019-04-29T22:12:38.260Z,96483.53
2019-04-29T22:15:08.855Z,96479.27
2019-04-29T22:17:37.593Z,96484.13
2019-04-29T22:20:08.520Z,96479.33
2019-04-29T22:22:37.249Z,96482.56
2019-04-29T22:25:09.941Z,96485.80
2019-04-29T22:27:39.766Z,96492.58
2019-04-29T22:30:16.894Z,96479.09
2019-04-29T22:32:41.318Z,96484.77
2019-04-29T22:35:10.216Z,96478.08
2019-04-29T22:37:38.883Z,96470.27
2019-04-29T22:40:10.497Z,96475.62
2019-04-29T22:42:43.531Z,96474.72
2019-04-29T22:45:12.238Z,96467.00
2019-04-29T22:47:40.949Z,96469.71
2019-04-29T22:50:09.800Z,96466.34
2019-04-29T22:52:38.467Z,96466.55
2019-04-29T22:55:08.996Z,96466.13
2019-04-29T22:57:37.688Z,96460.22
2019-04-29T23:00:08.573Z,96456.60
2019-04-29T23:02:37.421Z,96462.16
2019-04-29T23:05:06.568Z,96463.69
2019-04-29T23:07:37.544Z,96463.44
2019-04-29T23:10:07.085Z,96469.31
2019-04-29T23:12:35.761Z,96469.70
2019-04-29T23:15:06.463Z,96473.29
2019-04-29T23:17:35.561Z,96467.23
2019-04-29T23:20:28.517Z,96467.95
2019-04-29T23:23:07.689Z,96470.13
2019-04-29T23:25:38.223Z,96467.62
2019-04-29T23:28:06.801Z,96464.46
2019-04-29T23:30:35.449Z,96462.58
2019-04-29T23:33:04.716Z,96460.56
2019-04-29T23:35:34.964Z,96453.38
2019-04-29T23:38:09.137Z,96448.42
2019-04-29T23:40:34.594Z,96449.05
2019-04-29T23:43:03.244Z,96444.97
2019-04-29T23:45:31.900Z,96455.20
2019-04-29T23:48:00.601Z,96453.69
2019-04-29T23:50:29.222Z,96451.81
2019-04-29T23:52:57.873Z,96452.56
2019-04-29T23:55:29.171Z,96444.13
2019-04-29T23:58:02.677Z,96448.87
